createdAt,value
2019-01-17T13:47:50.785Z,4.77
2019-01-17T13:49:58.178Z,4.70
2019-01-17T13:52:05.573Z,4.72
2019-01-17T13:54:12.912Z,4.75
2019-01-17T13:56:20.339Z,4.74
2019-01-17T13:58:27.808Z,4.76
2019-01-17T14:00:35.478Z,4.77
2019-01-17T14:02:42.957Z,4.76
2019-01-17T14:04:50.351Z,4.75
2019-01-17T14:06:57.797Z,4.76
2019-01-17T14:09:07.608Z,4.75
2019-01-17T14:11:15.029Z,4.77
2019-01-17T14:13:22.504Z,4.76
2019-01-17T14:15:30.917Z,4.76
2019-01-17T14:17:38.459Z,4.78
2019-01-17T14:19:45.997Z,4.78
2019-01-17T14:21:53.250Z,4.75
2019-01-17T14:24:00.584Z,4.71
2019-01-17T14:26:08.828Z,4.74
2019-01-17T14:28:16.603Z,4.70
2019-01-17T14:30:27.708Z,4.78
2019-01-17T14:32:36.208Z,4.80
2019-01-17T14:34:43.783Z,4.76
2019-01-17T14:36:51.193Z,4.73
2019-01-17T14:38:58.573Z,4.74
2019-01-17T14:41:05.789Z,4.76
2019-01-17T14:43:13.212Z,4.74
2019-01-17T14:45:21.392Z,4.74
2019-01-17T14:47:28.775Z,4.73
2019-01-17T14:49:36.269Z,4.73
2019-01-17T14:51:43.723Z,4.76
2019-01-17T14:53:51.394Z,4.77
2019-01-17T14:55:59.146Z,4.75
2019-01-17T14:58:07.595Z,4.74
2019-01-17T15:00:18.516Z,4.79
2019-01-17T15:02:25.678Z,4.74
2019-01-17T15:04:33.419Z,4.73
2019-01-17T15:06:40.581Z,4.71
2019-01-17T15:08:48.106Z,4.71
2019-01-17T15:10:55.956Z,4.71
2019-01-17T15:13:03.890Z,4.64
2019-01-17T15:15:11.339Z,4.64
2019-01-17T15:17:18.817Z,4.59
2019-01-17T15:19:26.498Z,4.58
2019-01-17T15:21:34.102Z,4.59
2019-01-17T15:23:41.420Z,4.54
2019-01-17T15:25:49.070Z,4.58
2019-01-17T15:27:56.957Z,4.54
2019-01-17T15:30:04.251Z,4.52
2019-01-17T15:32:11.611Z,4.51
2019-01-17T15:34:18.940Z,4.56
2019-01-17T15:36:26.139Z,4.53
2019-01-17T15:38:34.210Z,4.53
2019-01-17T15:40:41.511Z,4.57
2019-01-17T15:42:48.989Z,4.55
2019-01-17T15:44:56.364Z,4.54
2019-01-17T15:47:03.457Z,4.52
2019-01-17T15:49:10.870Z,4.53
2019-01-17T15:51:18.041Z,4.53
2019-01-17T15:53:25.123Z,4.50
2019-01-17T15:55:32.709Z,4.50
2019-01-17T15:57:40.178Z,4.49
2019-01-17T15:59:47.211Z,4.51
2019-01-17T16:01:54.249Z,4.48
2019-01-17T16:04:01.457Z,4.46
2019-01-17T16:06:08.485Z,4.44
2019-01-17T16:08:15.944Z,4.44
2019-01-17T16:10:23.414Z,4.46
2019-01-17T16:12:30.989Z,4.45
2019-01-17T16:14:38.479Z,4.45
2019-01-17T16:16:48.327Z,4.43
2019-01-17T16:18:54.472Z,4.43
2019-01-17T16:21:01.937Z,4.42
2019-01-17T16:23:09.400Z,4.44
2019-01-17T16:25:16.683Z,4.43
2019-01-17T16:27:24.136Z,4.41
2019-01-17T16:29:32.497Z,4.41
2019-01-17T16:31:39.961Z,4.38
2019-01-17T16:33:47.602Z,4.37
2019-01-17T16:35:54.969Z,4.37
2019-01-17T16:38:02.352Z,4.34
2019-01-17T16:40:10.511Z,4.38
2019-01-17T16:42:17.890Z,4.40
2019-01-17T16:44:25.316Z,4.37
2019-01-17T16:46:32.710Z,4.38
2019-01-17T16:48:39.933Z,4.37
2019-01-17T16:50:47.382Z,4.37
2019-01-17T16:52:55.288Z,4.35
2019-01-17T16:55:03.065Z,4.37
2019-01-17T16:57:10.606Z,4.37
2019-01-17T16:59:18.215Z,4.37
2019-01-17T17:01:25.659Z,4.34
2019-01-17T17:03:33.120Z,4.35
2019-01-17T17:05:41.540Z,4.36
2019-01-17T17:07:48.981Z,4.32
2019-01-17T17:09:56.375Z,4.35
2019-01-17T17:12:04.034Z,4.31
2019-01-17T17:14:11.339Z,4.32
2019-01-17T17:16:18.688Z,4.31
2019-01-17T17:18:26.160Z,4.28
2019-01-17T17:20:33.694Z,4.28
2019-01-17T17:22:42.155Z,4.29
2019-01-17T17:24:49.308Z,4.27
2019-01-17T17:26:56.357Z,4.22
2019-01-17T17:29:03.367Z,4.20
2019-01-17T17:31:11.187Z,4.19
2019-01-17T17:33:18.327Z,4.15
2019-01-17T17:35:25.924Z,4.17
2019-01-17T17:37:33.037Z,4.16
2019-01-17T17:39:40.142Z,4.15
2019-01-17T17:41:47.199Z,4.16
2019-01-17T17:43:54.864Z,4.12
2019-01-17T17:46:02.037Z,4.11
2019-01-17T17:48:09.823Z,4.10
2019-01-17T17:50:18.910Z,4.09
2019-01-17T17:52:26.208Z,4.09
2019-01-17T17:54:33.495Z,4.09
2019-01-17T17:56:40.773Z,4.09
2019-01-17T17:58:48.221Z,4.07
2019-01-17T18:01:02.189Z,4.07
2019-01-17T18:03:09.414Z,4.05
2019-01-17T18:05:16.602Z,4.02
2019-01-17T18:07:24.029Z,4.00
2019-01-17T18:09:31.085Z,4.01
2019-01-17T18:11:38.848Z,3.97
2019-01-17T18:13:46.304Z,4.01
2019-01-17T18:15:54.555Z,4.03
2019-01-17T18:18:01.911Z,4.01
2019-01-17T18:20:11.356Z,4.00
2019-01-17T18:22:19.038Z,3.99
2019-01-17T18:24:26.576Z,3.95
2019-01-17T18:26:33.621Z,3.97
2019-01-17T18:29:00.831Z,3.94
2019-01-17T18:31:08.295Z,3.94
2019-01-17T18:33:15.928Z,3.93
2019-01-17T18:35:23.160Z,3.91
2019-01-17T18:37:30.628Z,3.88
2019-01-17T18:39:39.496Z,3.91
2019-01-17T18:41:47.195Z,3.89
2019-01-17T18:43:54.344Z,3.93
2019-01-17T18:46:01.441Z,3.90
2019-01-17T18:48:08.746Z,3.89
2019-01-17T18:50:19.857Z,3.90
2019-01-17T18:52:27.070Z,3.91
2019-01-17T18:54:34.431Z,3.90
2019-01-17T18:56:42.269Z,3.90
2019-01-17T18:58:50.759Z,3.90
2019-01-17T19:00:58.394Z,3.91
2019-01-17T19:03:09.894Z,3.92
2019-01-17T19:05:18.515Z,3.90
2019-01-17T19:07:26.045Z,3.90
2019-01-17T19:09:34.778Z,3.94
2019-01-17T19:11:42.431Z,3.94
2019-01-17T19:13:49.614Z,3.90
2019-01-17T19:15:57.864Z,3.92
2019-01-17T19:18:04.971Z,3.95
2019-01-17T19:20:14.617Z,3.96
2019-01-17T19:22:22.417Z,3.97
2019-01-17T19:24:29.584Z,3.96
2019-01-17T19:26:39.210Z,4.01
2019-01-17T19:28:47.234Z,4.00
2019-01-17T19:30:54.496Z,4.02
2019-01-17T19:33:01.779Z,3.99
2019-01-17T19:35:09.456Z,4.03
2019-01-17T19:37:17.136Z,4.02
2019-01-17T19:39:24.378Z,4.04
2019-01-17T19:41:31.623Z,4.05
2019-01-17T19:43:38.771Z,4.03
2019-01-17T19:45:46.548Z,4.01
2019-01-17T19:47:53.688Z,4.02
2019-01-17T19:50:02.166Z,4.01
2019-01-17T19:52:09.246Z,4.00
2019-01-17T19:54:18.014Z,4.00
2019-01-17T19:56:25.321Z,3.98
2019-01-17T19:58:32.560Z,3.96
2019-01-17T20:00:39.675Z,3.92
2019-01-17T20:02:46.974Z,3.92
2019-01-17T20:04:54.193Z,3.90
2019-01-17T20:07:01.646Z,3.88
2019-01-17T20:09:12.811Z,3.90
2019-01-17T20:13:53.485Z,3.91
2019-01-17T20:16:00.832Z,3.90
2019-01-17T20:18:08.636Z,3.84
2019-01-17T20:20:16.039Z,3.83
2019-01-17T20:22:25.340Z,3.82
2019-01-17T20:24:32.457Z,3.83
2019-01-17T20:26:39.576Z,3.86
2019-01-17T20:28:46.808Z,3.86
2019-01-17T20:30:54.022Z,3.85
2019-01-17T20:33:03.717Z,3.85
2019-01-17T20:35:10.991Z,3.86
2019-01-17T20:37:18.573Z,3.86
2019-01-17T20:39:25.740Z,3.87
2019-01-17T20:41:32.975Z,3.83
2019-01-17T20:43:40.199Z,3.88
2019-01-17T20:45:47.689Z,3.89
2019-01-17T20:47:54.839Z,3.93
2019-01-17T20:50:02.042Z,3.94
2019-01-17T20:52:09.254Z,3.94
2019-01-17T20:54:16.523Z,3.94
2019-01-17T20:56:23.715Z,3.93
2019-01-17T20:58:30.889Z,3.93
2019-01-17T21:01:46.801Z,3.96
2019-01-17T21:03:54.179Z,3.95
2019-01-17T21:06:01.421Z,3.93
2019-01-17T21:08:08.715Z,3.90
2019-01-17T21:10:16.506Z,3.89
2019-01-17T21:12:23.677Z,3.89
2019-01-17T21:14:31.002Z,3.92
2019-01-17T21:16:38.268Z,3.93
2019-01-17T21:18:45.538Z,3.93
2019-01-17T21:20:52.767Z,3.90
2019-01-17T21:23:00.052Z,3.88
2019-01-17T21:25:10.285Z,3.88
2019-01-17T21:27:17.664Z,3.87
2019-01-17T21:29:24.904Z,3.86
2019-01-17T21:31:32.188Z,3.86
2019-01-17T21:33:39.560Z,3.86
2019-01-17T21:35:47.025Z,3.86
2019-01-17T21:37:54.802Z,3.85
2019-01-17T21:40:02.405Z,3.85
2019-01-17T21:42:09.529Z,3.87
2019-01-17T21:44:16.788Z,3.88
2019-01-17T21:46:24.244Z,3.89
2019-01-17T21:48:31.315Z,3.87
2019-01-17T21:50:38.404Z,3.89
2019-01-17T21:52:46.117Z,3.88
2019-01-17T21:54:53.465Z,3.93
2019-01-17T21:57:01.118Z,3.97
2019-01-17T21:59:08.487Z,3.94
2019-01-17T22:01:15.765Z,3.96
2019-01-17T22:03:23.231Z,3.98
2019-01-17T22:05:30.835Z,4.02
2019-01-17T22:07:38.363Z,4.02
2019-01-17T22:09:45.767Z,4.05
2019-01-17T22:11:53.295Z,4.06
2019-01-17T22:14:01.027Z,4.11
2019-01-17T22:16:09.231Z,4.10
2019-01-17T22:18:16.912Z,4.10
2019-01-17T22:20:24.400Z,4.10
2019-01-17T22:22:32.028Z,4.26
2019-01-17T22:24:39.910Z,4.24
2019-01-17T22:26:47.650Z,4.22
2019-01-17T22:28:55.323Z,4.11
2019-01-17T22:31:02.820Z,4.01
2019-01-17T22:33:10.249Z,3.94
2019-01-17T22:35:17.677Z,3.91
2019-01-17T22:37:25.158Z,3.83
2019-01-17T22:39:32.947Z,3.84
2019-01-17T22:41:40.404Z,3.78
2019-01-17T22:43:48.212Z,3.75
2019-01-17T22:45:55.554Z,3.64
2019-01-17T22:48:03.009Z,3.59
2019-01-17T22:50:13.751Z,3.55
2019-01-17T22:52:20.906Z,3.47
2019-01-17T22:54:28.366Z,3.43
2019-01-17T22:56:35.906Z,3.41
2019-01-17T22:58:43.340Z,3.36
2019-01-17T23:01:21.866Z,3.35
2019-01-17T23:03:45.071Z,3.29
2019-01-17T23:05:52.350Z,3.24
2019-01-17T23:07:59.788Z,3.22
2019-01-17T23:10:08.057Z,3.18
2019-01-17T23:12:15.181Z,3.17
2019-01-17T23:14:22.329Z,3.13
2019-01-17T23:16:29.991Z,3.08
2019-01-17T23:18:37.290Z,3.03
2019-01-17T23:20:44.929Z,2.96
2019-01-17T23:22:52.214Z,2.91
2019-01-17T23:25:02.111Z,2.95
2019-01-17T23:27:09.567Z,2.95
2019-01-17T23:29:17.100Z,2.97
2019-01-17T23:31:24.456Z,2.98
2019-01-17T23:33:31.524Z,2.95
2019-01-17T23:35:39.060Z,2.99
2019-01-17T23:37:46.228Z,2.97
2019-01-17T23:39:53.338Z,2.92
2019-01-17T23:42:00.938Z,2.83
2019-01-17T23:44:07.866Z,2.83
2019-01-17T23:46:14.953Z,2.80
2019-01-17T23:48:22.203Z,2.79
2019-01-17T23:50:29.606Z,2.84
2019-01-17T23:52:36.930Z,2.83
2019-01-17T23:54:44.029Z,2.80
2019-01-17T23:56:51.122Z,2.84
2019-01-17T23:58:58.196Z,2.82
